Time;durP1;ratioP1;P1;durP2;ratioP2;P2;SDS_P1;SDS_P2;PMS_P1;PMS_P2;Temp;Humidity;BMP_temperature;BMP_pressure;BME280_temperature;BME280_humidity;BME280_pressure;Samples;Min_cycle;Max_cycle;Signal;HPM_P1;HPM_P2
2022/11/22 00:01:47;;;;;;;;;;;;;;;43.47;nan;101827.25;5090041;28;19920;-58
2022/11/22 00:04:15;;;;;;;;;;;;;;;43.12;nan;101824.44;5093063;28;20242;-57
2022/11/22 00:06:42;;;;;;;;;;;;;;;42.94;nan;101830.00;5085091;28;20019;-56
2022/11/22 00:09:08;;;;;;;;;;;;;;;42.63;nan;101829.84;5080722;28;19928;-58
2022/11/22 00:11:34;;;;;;;;;;;;;;;42.40;nan;101831.00;5085836;28;19920;-56
2022/11/22 00:14:01;;;;;;;;;;;;;;;42.26;nan;101823.72;5090800;28;19941;-56
2022/11/22 00:16:27;;;;;;;;;;;;;;;42.35;nan;101823.78;5090246;28;19916;-57
2022/11/22 00:18:54;;;;;;;;;;;;;;;42.22;nan;101820.19;5080387;28;20042;-56
2022/11/22 00:21:20;;;;;;;;;;;;;;;42.04;nan;101829.28;5080306;28;20421;-57
2022/11/22 00:23:46;;;;;;;;;;;;;;;41.79;nan;101826.41;5088289;28;19916;-57
2022/11/22 00:26:12;;;;;;;;;;;;;;;41.71;nan;101827.91;5077644;28;20302;-56
2022/11/22 00:28:39;;;;;;;;;;;;;;;41.50;nan;101830.13;5090903;28;19916;-56
2022/11/22 00:31:05;;;;;;;;;;;;;;;41.23;nan;101832.50;5079207;28;19924;-58
2022/11/22 00:33:32;;;;;;;;;;;;;;;41.01;nan;101833.13;5084674;28;19927;-56
2022/11/22 00:35:58;;;;;;;;;;;;;;;40.62;nan;101834.13;5078846;28;20411;-55
2022/11/22 00:38:24;;;;;;;;;;;;;;;40.34;nan;101843.34;5075175;28;19970;-55
2022/11/22 00:40:51;;;;;;;;;;;;;;;40.16;nan;101840.94;5088532;28;19920;-56
2022/11/22 00:43:17;;;;;;;;;;;;;;;40.20;nan;101847.34;5077097;28;20447;-56
2022/11/22 00:45:43;;;;;;;;;;;;;;;39.82;nan;101849.81;5074766;28;19994;-56
2022/11/22 00:48:09;;;;;;;;;;;;;;;39.80;nan;101841.72;5077095;28;20440;-56
2022/11/22 00:50:36;;;;;;;;;;;;;;;39.74;nan;101845.53;5073112;28;19921;-55
2022/11/22 00:53:02;;;;;;;;;;;;;;;39.62;nan;101852.69;5055210;28;20019;-56
2022/11/22 00:55:28;;;;;;;;;;;;;;;39.50;nan;101850.47;5053601;28;19954;-56
2022/11/22 00:57:54;;;;;;;;;;;;;;;39.37;nan;101846.72;5054509;28;19932;-57
2022/11/22 01:00:21;;;;;;;;;;;;;;;39.10;nan;101853.31;5055376;28;19920;-56
2022/11/22 01:02:47;;;;;;;;;;;;;;;39.08;nan;101857.81;5054102;28;19921;-55
2022/11/22 01:05:13;;;;;;;;;;;;;;;38.96;nan;101859.22;5054019;28;19917;-57
2022/11/22 01:07:39;;;;;;;;;;;;;;;38.84;nan;101860.66;5054221;28;19921;-55
2022/11/22 01:10:06;;;;;;;;;;;;;;;38.61;nan;101858.59;5054088;28;19966;-55
2022/11/22 01:12:32;;;;;;;;;;;;;;;38.56;nan;101861.13;5036765;28;20389;-55
2022/11/22 01:14:58;;;;;;;;;;;;;;;38.53;nan;101865.63;5054118;28;20290;-55
2022/11/22 01:17:25;;;;;;;;;;;;;;;38.48;nan;101866.13;5057910;28;19939;-56
2022/11/22 01:19:51;;;;;;;;;;;;;;;38.41;nan;101860.53;5063219;28;19920;-57
2022/11/22 01:22:18;;;;;;;;;;;;;;;38.30;nan;101862.75;5070552;28;20018;-57
2022/11/22 01:24:44;;;;;;;;;;;;;;;38.04;nan;101859.44;5055253;28;19920;-57
2022/11/22 01:27:10;;;;;;;;;;;;;;;38.01;nan;101854.63;5064221;28;19928;-57
2022/11/22 01:29:36;;;;;;;;;;;;;;;37.88;nan;101849.94;5063351;28;19916;-58
2022/11/22 01:32:03;;;;;;;;;;;;;;;37.53;nan;101845.53;5056588;28;20337;-55
2022/11/22 01:34:29;;;;;;;;;;;;;;;37.54;nan;101847.13;5062018;28;19916;-55
2022/11/22 01:36:56;;;;;;;;;;;;;;;37.62;nan;101848.63;5058298;28;20374;-56
2022/11/22 01:39:22;;;;;;;;;;;;;;;37.67;nan;101851.00;5063337;28;19970;-56
2022/11/22 01:41:48;;;;;;;;;;;;;;;37.60;nan;101851.91;5065485;28;19934;-58
2022/11/22 01:44:17;;;;;;;;;;;;;;;37.61;nan;101859.19;5071378;28;19973;-57
2022/11/22 01:46:44;;;;;;;;;;;;;;;37.55;nan;101860.91;5057023;28;20054;-56
2022/11/22 01:49:13;;;;;;;;;;;;;;;37.58;nan;101859.25;5067759;28;19920;-57
2022/11/22 01:51:41;;;;;;;;;;;;;;;37.47;nan;101862.19;5081638;28;19974;-58
2022/11/22 01:54:10;;;;;;;;;;;;;;;37.43;nan;101856.56;5089386;28;20023;-57
2022/11/22 01:56:37;;;;;;;;;;;;;;;37.42;nan;101857.78;5077706;28;19927;-56
2022/11/22 01:59:07;;;;;;;;;;;;;;;37.26;nan;101866.06;5086677;28;19923;-58
2022/11/22 02:01:34;;;;;;;;;;;;;;;37.00;nan;101869.56;5084027;28;19967;-56
2022/11/22 02:04:01;;;;;;;;;;;;;;;36.95;nan;101878.50;5080169;28;19932;-56
2022/11/22 02:06:34;;;;;;;;;;;;;;;36.99;nan;101879.31;5093250;28;20015;-56
2022/11/22 02:09:05;;;;;;;;;;;;;;;36.82;nan;101881.88;5084163;28;19920;-56
2022/11/22 02:11:31;;;;;;;;;;;;;;;36.48;nan;101890.19;5085573;28;19921;-55
2022/11/22 02:13:58;;;;;;;;;;;;;;;36.56;nan;101885.28;5091013;28;19943;-56
2022/11/22 02:16:24;;;;;;;;;;;;;;;36.59;nan;101890.09;5080058;28;19928;-56
2022/11/22 02:18:50;;;;;;;;;;;;;;;36.48;nan;101889.41;5089004;28;19974;-57
2022/11/22 02:21:17;;;;;;;;;;;;;;;36.32;nan;101887.06;5088313;28;20362;-57
2022/11/22 02:23:43;;;;;;;;;;;;;;;36.36;nan;101887.03;5088723;28;20404;-57
2022/11/22 02:26:10;;;;;;;;;;;;;;;36.19;nan;101894.41;5080577;28;19930;-58
2022/11/22 02:28:38;;;;;;;;;;;;;;;36.29;nan;101888.69;5093066;28;19920;-57
2022/11/22 02:31:04;;;;;;;;;;;;;;;36.43;nan;101882.13;5083328;28;19927;-55
2022/11/22 02:33:31;;;;;;;;;;;;;;;36.31;nan;101888.28;5085680;28;19924;-57
2022/11/22 02:35:57;;;;;;;;;;;;;;;36.25;nan;101898.41;5090240;28;20372;-58
2022/11/22 02:38:26;;;;;;;;;;;;;;;36.28;nan;101904.06;5079432;28;19920;-57
2022/11/22 02:40:53;;;;;;;;;;;;;;;36.29;nan;101904.88;5090939;28;20011;-57
2022/11/22 02:43:22;;;;;;;;;;;;;;;36.09;nan;101898.91;5085130;28;20091;-54
2022/11/22 02:45:48;;;;;;;;;;;;;;;35.83;nan;101897.38;5082663;28;19966;-56
2022/11/22 02:48:15;;;;;;;;;;;;;;;35.95;nan;101896.97;5084946;28;19967;-56
2022/11/22 02:50:42;;;;;;;;;;;;;;;35.88;nan;101907.47;5092287;28;19974;-56
2022/11/22 02:53:09;;;;;;;;;;;;;;;35.73;nan;101912.38;5083514;28;20389;-55
2022/11/22 02:55:36;;;;;;;;;;;;;;;35.67;nan;101909.16;5084731;28;19961;-56
2022/11/22 02:58:04;;;;;;;;;;;;;;;35.65;nan;101911.59;5090634;28;19974;-57
2022/11/22 03:00:31;;;;;;;;;;;;;;;35.79;nan;101916.38;5078943;28;19916;-55
2022/11/22 03:02:57;;;;;;;;;;;;;;;35.70;nan;101911.16;5089937;28;19978;-57
2022/11/22 03:05:23;;;;;;;;;;;;;;;35.70;nan;101911.16;5085407;28;20327;-56
2022/11/22 03:07:50;;;;;;;;;;;;;;;35.73;nan;101907.53;5082286;28;20446;-55
2022/11/22 03:10:16;;;;;;;;;;;;;;;35.68;nan;101905.09;5092470;28;19958;-58
2022/11/22 03:12:42;;;;;;;;;;;;;;;35.29;nan;101910.03;5079600;28;20401;-57
2022/11/22 03:15:09;;;;;;;;;;;;;;;35.26;nan;101916.50;5083751;28;19923;-57
2022/11/22 03:17:35;;;;;;;;;;;;;;;35.37;nan;101908.81;5083556;28;19959;-54
2022/11/22 03:20:02;;;;;;;;;;;;;;;35.49;nan;101910.41;5090427;28;19916;-57
2022/11/22 03:22:28;;;;;;;;;;;;;;;35.55;nan;101909.63;5078783;28;20444;-55
2022/11/22 03:24:54;;;;;;;;;;;;;;;35.40;nan;101908.84;5090147;28;19920;-57
2022/11/22 03:27:21;;;;;;;;;;;;;;;35.20;nan;101912.47;5084590;28;19928;-57
2022/11/22 03:29:47;;;;;;;;;;;;;;;35.30;nan;101906.00;5082815;28;19928;-56
2022/11/22 03:32:13;;;;;;;;;;;;;;;35.23;nan;101917.31;5091756;28;19963;-56
2022/11/22 03:34:39;;;;;;;;;;;;;;;35.37;nan;101914.47;5062135;28;19930;-56
2022/11/22 03:37:06;;;;;;;;;;;;;;;35.09;nan;101918.94;5088064;28;19921;-56
2022/11/22 03:39:32;;;;;;;;;;;;;;;35.02;nan;101912.50;5085919;28;20366;-57
2022/11/22 03:41:58;;;;;;;;;;;;;;;35.07;nan;101910.06;5080330;28;19970;-56
2022/11/22 03:44:24;;;;;;;;;;;;;;;35.01;nan;101911.69;5091639;28;19971;-56
2022/11/22 03:46:51;;;;;;;;;;;;;;;35.10;nan;101914.91;5079931;28;20010;-56
2022/11/22 03:49:17;;;;;;;;;;;;;;;34.77;nan;101918.09;5087374;28;19920;-57
2022/11/22 03:51:43;;;;;;;;;;;;;;;35.04;nan;101910.88;5082533;28;19920;-57
2022/11/22 03:54:09;;;;;;;;;;;;;;;35.12;nan;101912.47;5073370;28;19920;-57
2022/11/22 03:56:36;;;;;;;;;;;;;;;35.09;nan;101916.09;5077548;28;19920;-57
2022/11/22 03:59:02;;;;;;;;;;;;;;;34.61;nan;101914.84;5088175;28;19923;-56
2022/11/22 04:01:28;;;;;;;;;;;;;;;34.56;nan;101920.91;5085128;28;19926;-56
2022/11/22 04:03:54;;;;;;;;;;;;;;;34.67;nan;101919.72;5080690;28;20000;-58
2022/11/22 04:06:21;;;;;;;;;;;;;;;34.67;nan;101919.72;5091371;28;19930;-56
2022/11/22 04:08:47;;;;;;;;;;;;;;;34.67;nan;101922.53;5075026;28;19921;-57
2022/11/22 04:11:13;;;;;;;;;;;;;;;34.72;nan;101921.31;5074361;28;19920;-57
2022/11/22 04:16:24;;;;;;;;;;;;;;;34.41;nan;101920.06;5078014;28;20374;-56
2022/11/22 04:18:50;;;;;;;;;;;;;;;34.37;nan;101916.44;5085906;28;19916;-56
2022/11/22 04:21:35;;;;;;;;;;;;;;;34.37;nan;101920.06;5085708;28;19920;-56
2022/11/22 04:26:49;;;;;;;;;;;;;;;34.25;nan;101926.03;5052444;28;19920;-56
2022/11/22 04:29:16;;;;;;;;;;;;;;;34.36;nan;101918.44;5085232;28;19920;-56
2022/11/22 04:34:27;;;;;;;;;;;;;;;34.32;nan;101920.41;5076958;28;20037;-56
2022/11/22 04:36:53;;;;;;;;;;;;;;;34.18;nan;101926.03;5088653;28;19916;-57
2022/11/22 04:39:19;;;;;;;;;;;;;;;34.05;nan;101925.56;5082817;28;19920;-56
2022/11/22 04:41:46;;;;;;;;;;;;;;;34.04;nan;101926.78;5081046;28;20404;-56
2022/11/22 04:46:57;;;;;;;;;;;;;;;34.04;nan;101929.59;5079821;28;19928;-55
2022/11/22 04:49:23;;;;;;;;;;;;;;;34.19;nan;101922.00;5085188;28;20378;-56
2022/11/22 04:54:34;;;;;;;;;;;;;;;34.08;nan;101929.59;5088807;28;19920;-56
2022/11/22 04:57:00;;;;;;;;;;;;;;;33.90;nan;101921.88;5079838;28;19956;-56
2022/11/22 04:59:26;;;;;;;;;;;;;;;33.73;nan;101921.75;5083684;28;19975;-56
2022/11/22 05:01:52;;;;;;;;;;;;;;;33.82;nan;101931.47;5086913;28;19920;-56
2022/11/22 05:04:19;;;;;;;;;;;;;;;33.50;nan;101930.50;5076840;28;20362;-57
2022/11/22 05:06:45;;;;;;;;;;;;;;;33.55;nan;101930.09;5089227;28;19920;-56
2022/11/22 05:09:11;;;;;;;;;;;;;;;33.52;nan;101930.91;5081366;28;20047;-56
2022/11/22 05:11:37;;;;;;;;;;;;;;;33.44;nan;101930.06;5081455;28;19916;-57
2022/11/22 05:14:05;;;;;;;;;;;;;;;33.68;nan;101925.75;5065280;28;20349;-56
2022/11/22 05:16:31;;;;;;;;;;;;;;;33.75;nan;101934.25;5087236;28;20321;-56
2022/11/22 05:19:00;;;;;;;;;;;;;;;33.52;nan;101933.72;5078727;28;19949;-57
2022/11/22 05:21:27;;;;;;;;;;;;;;;33.32;nan;101930.34;5083277;28;19978;-56
2022/11/22 05:23:54;;;;;;;;;;;;;;;33.32;nan;101925.53;5086688;28;19920;-56
2022/11/22 05:26:21;;;;;;;;;;;;;;;33.40;nan;101928.44;5076298;28;19920;-58
2022/11/22 05:28:47;;;;;;;;;;;;;;;33.51;nan;101929.28;5088837;28;19928;-56
2022/11/22 05:31:21;;;;;;;;;;;;;;;33.53;nan;101924.88;5080182;28;20294;-57
2022/11/22 05:33:49;;;;;;;;;;;;;;;33.70;nan;101934.63;5079793;28;19963;-56
2022/11/22 05:36:15;;;;;;;;;;;;;;;33.41;nan;101932.84;5089484;28;20371;-57
2022/11/22 05:38:42;;;;;;;;;;;;;;;33.29;nan;101929.13;5076899;28;19927;-57
2022/11/22 05:41:09;;;;;;;;;;;;;;;33.27;nan;101933.53;5085198;28;20037;-57
2022/11/22 05:43:35;;;;;;;;;;;;;;;33.33;nan;101927.16;5084266;28;19985;-57
2022/11/22 05:46:05;;;;;;;;;;;;;;;33.27;nan;101937.16;5078137;28;20015;-57
2022/11/22 05:48:31;;;;;;;;;;;;;;;33.31;nan;101937.97;5083005;28;19931;-55
2022/11/22 05:51:04;;;;;;;;;;;;;;;33.30;nan;101927.91;5085759;28;20464;-55
2022/11/22 05:53:31;;;;;;;;;;;;;;;33.14;nan;101935.03;5083359;28;19930;-55
2022/11/22 05:55:57;;;;;;;;;;;;;;;33.14;nan;101930.22;5078476;28;19928;-57
2022/11/22 05:58:23;;;;;;;;;;;;;;;33.24;nan;101929.50;5089464;28;19930;-56
2022/11/22 06:00:49;;;;;;;;;;;;;;;33.24;nan;101932.31;5077615;28;19916;-57
2022/11/22 06:03:16;;;;;;;;;;;;;;;33.00;nan;101938.53;5084221;28;19946;-57
2022/11/22 06:05:42;;;;;;;;;;;;;;;32.85;nan;101931.16;5084776;28;19959;-56
2022/11/22 06:08:10;;;;;;;;;;;;;;;32.80;nan;101921.06;5078909;28;19924;-57
2022/11/22 06:10:37;;;;;;;;;;;;;;;32.81;nan;101924.69;5089857;28;19999;-54
2022/11/22 06:13:04;;;;;;;;;;;;;;;32.89;nan;101932.03;5079518;28;20006;-56
2022/11/22 06:15:30;;;;;;;;;;;;;;;32.27;nan;101932.53;5082330;28;19916;-57
2022/11/22 06:17:56;;;;;;;;;;;;;;;32.71;nan;101946.72;5081455;28;19924;-56
2022/11/22 06:20:22;;;;;;;;;;;;;;;32.58;nan;101942.53;5089004;28;19916;-56
2022/11/22 06:22:49;;;;;;;;;;;;;;;32.25;nan;101946.16;5077251;28;20302;-56
2022/11/22 06:25:15;;;;;;;;;;;;;;;32.23;nan;101939.31;5084141;28;20295;-57
2022/11/22 06:27:41;;;;;;;;;;;;;;;31.98;nan;101948.25;5084293;28;19916;-56
2022/11/22 06:30:08;;;;;;;;;;;;;;;32.05;nan;101947.53;5076820;28;19963;-56
2022/11/22 06:32:34;;;;;;;;;;;;;;;32.07;nan;101936.69;5089145;28;20138;-56
2022/11/22 06:35:01;;;;;;;;;;;;;;;32.38;nan;101943.94;5078731;28;20362;-56
2022/11/22 06:37:27;;;;;;;;;;;;;;;32.50;nan;101940.88;5082176;28;19921;-56
2022/11/22 06:39:54;;;;;;;;;;;;;;;32.57;nan;101942.94;5085769;28;19920;-56
2022/11/22 06:42:20;;;;;;;;;;;;;;;32.68;nan;101936.22;5075665;28;19944;-56
2022/11/22 06:44:46;;;;;;;;;;;;;;;32.60;nan;101928.88;5087931;28;19917;-56
2022/11/22 06:47:12;;;;;;;;;;;;;;;32.74;nan;101934.66;5080342;28;19920;-57
2022/11/22 06:49:38;;;;;;;;;;;;;;;32.57;nan;101929.66;5084524;28;20338;-56
2022/11/22 06:52:05;;;;;;;;;;;;;;;32.49;nan;101938.41;5076961;28;19931;-56
2022/11/22 06:54:31;;;;;;;;;;;;;;;32.29;nan;101934.97;5092594;28;20435;-55
2022/11/22 06:56:57;;;;;;;;;;;;;;;32.05;nan;101933.47;5081882;28;19927;-55
2022/11/22 06:59:23;;;;;;;;;;;;;;;32.24;nan;101921.22;5086315;28;19917;-56
2022/11/22 07:01:50;;;;;;;;;;;;;;;32.26;nan;101921.66;5088933;28;19920;-56
2022/11/22 07:04:16;;;;;;;;;;;;;;;32.37;nan;101914.19;5079096;28;19951;-55
2022/11/22 07:06:43;;;;;;;;;;;;;;;32.34;nan;101917.75;5092051;28;19927;-57
2022/11/22 07:09:10;;;;;;;;;;;;;;;32.24;nan;101913.59;5083101;28;20385;-56
2022/11/22 07:11:36;;;;;;;;;;;;;;;31.97;nan;101920.50;5084424;28;19928;-57
2022/11/22 07:14:03;;;;;;;;;;;;;;;32.10;nan;101925.47;5090567;28;19923;-58
2022/11/22 07:16:30;;;;;;;;;;;;;;;32.16;nan;101920.34;5078868;28;19939;-56
2022/11/22 07:18:58;;;;;;;;;;;;;;;32.24;nan;101905.16;5081567;28;19920;-57
2022/11/22 07:21:24;;;;;;;;;;;;;;;32.30;nan;101914.88;5085809;28;20385;-57
2022/11/22 07:23:52;;;;;;;;;;;;;;;32.11;nan;101903.78;5075032;28;20011;-57
2022/11/22 07:26:19;;;;;;;;;;;;;;;32.17;nan;101902.28;5091047;28;19920;-57
2022/11/22 07:28:45;;;;;;;;;;;;;;;32.33;nan;101899.28;5070708;28;20428;-56
2022/11/22 07:31:13;;;;;;;;;;;;;;;32.46;nan;101894.97;5074986;28;19935;-56
2022/11/22 07:33:39;;;;;;;;;;;;;;;32.47;nan;101886.13;5087004;28;20006;-57
2022/11/22 07:36:06;;;;;;;;;;;;;;;32.32;nan;101892.03;5079175;28;19924;-55
2022/11/22 07:38:33;;;;;;;;;;;;;;;32.33;nan;101886.00;5079261;28;19932;-55
2022/11/22 07:41:00;;;;;;;;;;;;;;;32.36;nan;101876.78;5076919;28;19921;-56
2022/11/22 07:43:26;;;;;;;;;;;;;;;32.29;nan;101873.06;5076847;28;19916;-56
2022/11/22 07:45:53;;;;;;;;;;;;;;;32.09;nan;101881.66;5076518;28;20054;-57
2022/11/22 07:48:19;;;;;;;;;;;;;;;32.06;nan;101885.25;5076084;28;19916;-56
2022/11/22 07:50:45;;;;;;;;;;;;;;;32.11;nan;101879.28;5066721;28;19928;-56
2022/11/22 07:53:12;;;;;;;;;;;;;;;32.44;nan;101867.22;5061122;28;20013;-55
2022/11/22 07:55:38;;;;;;;;;;;;;;;32.37;nan;101869.97;5041363;28;19970;-56
2022/11/22 07:58:04;;;;;;;;;;;;;;;32.42;nan;101863.16;5054524;28;19974;-56
2022/11/22 08:00:30;;;;;;;;;;;;;;;32.39;nan;101864.75;5071027;28;19916;-56
2022/11/22 08:02:58;;;;;;;;;;;;;;;32.38;nan;101862.31;5060186;28;20378;-55
2022/11/22 08:05:24;;;;;;;;;;;;;;;32.44;nan;101864.41;5064899;28;20385;-54
2022/11/22 08:07:51;;;;;;;;;;;;;;;32.33;nan;101871.13;5067113;28;19920;-56
2022/11/22 08:10:18;;;;;;;;;;;;;;;32.28;nan;101865.81;5056658;28;20067;-57
2022/11/22 08:12:44;;;;;;;;;;;;;;;32.26;nan;101865.38;5069602;28;20391;-57
2022/11/22 08:15:12;;;;;;;;;;;;;;;32.33;nan;101868.31;5060967;28;19922;-57
2022/11/22 08:17:38;;;;;;;;;;;;;;;32.12;nan;101869.66;5061422;28;19920;-58
2022/11/22 08:20:05;;;;;;;;;;;;;;;32.07;nan;101861.56;5068600;28;19916;-57
2022/11/22 08:22:31;;;;;;;;;;;;;;;31.85;nan;101859.69;5056982;28;20520;-58
2022/11/22 08:24:58;;;;;;;;;;;;;;;31.45;nan;101869.59;5068220;28;19939;-57
2022/11/22 08:27:24;;;;;;;;;;;;;;;31.74;nan;101865.19;5063881;28;19921;-55
2022/11/22 08:29:50;;;;;;;;;;;;;;;31.67;nan;101858.63;5060649;28;20410;-58
2022/11/22 08:32:16;;;;;;;;;;;;;;;31.73;nan;101863.56;5070630;28;19928;-55
2022/11/22 08:34:43;;;;;;;;;;;;;;;31.60;nan;101869.75;5057990;28;19924;-58
2022/11/22 08:37:09;;;;;;;;;;;;;;;31.55;nan;101879.34;5066496;28;19921;-56
2022/11/22 08:39:35;;;;;;;;;;;;;;;31.54;nan;101877.72;5065075;28;19921;-57
2022/11/22 08:42:01;;;;;;;;;;;;;;;31.59;nan;101874.59;5058820;28;19925;-56
2022/11/22 08:44:27;;;;;;;;;;;;;;;31.58;nan;101873.78;5058717;28;19954;-57
2022/11/22 08:46:54;;;;;;;;;;;;;;;31.42;nan;101875.97;5059320;28;19943;-57
2022/11/22 08:49:20;;;;;;;;;;;;;;;31.37;nan;101876.28;5066638;28;20400;-57
2022/11/22 08:51:46;;;;;;;;;;;;;;;31.15;nan;101877.94;5080963;28;20076;-56
2022/11/22 08:54:13;;;;;;;;;;;;;;;31.19;nan;101872.41;5090106;28;19916;-56
2022/11/22 08:56:40;;;;;;;;;;;;;;;31.20;nan;101869.22;5077182;28;19985;-56
2022/11/22 08:59:06;;;;;;;;;;;;;;;31.14;nan;101867.91;5086454;28;19985;-56
2022/11/22 09:01:33;;;;;;;;;;;;;;;31.07;nan;101862.19;5084508;28;19920;-57
2022/11/22 09:03:59;;;;;;;;;;;;;;;30.91;nan;101862.31;5078969;28;19920;-57
2022/11/22 09:06:25;;;;;;;;;;;;;;;30.89;nan;101861.91;5090256;28;19946;-57
2022/11/22 09:08:51;;;;;;;;;;;;;;;31.12;nan;101869.47;5078346;28;19916;-56
2022/11/22 09:11:18;;;;;;;;;;;;;;;31.14;nan;101867.09;5084781;28;20435;-55
2022/11/22 09:13:45;;;;;;;;;;;;;;;30.95;nan;101868.00;5085752;28;20006;-56
2022/11/22 09:16:13;;;;;;;;;;;;;;;30.96;nan;101867.63;5076539;28;19969;-56
2022/11/22 09:18:40;;;;;;;;;;;;;;;30.66;nan;101867.50;5067263;28;19917;-56
2022/11/22 09:21:10;;;;;;;;;;;;;;;30.76;nan;101871.69;5086086;28;20018;-56
2022/11/22 09:23:37;;;;;;;;;;;;;;;30.80;nan;101866.94;5084792;28;19920;-55
2022/11/22 09:26:07;;;;;;;;;;;;;;;30.78;nan;101863.72;5078198;28;19916;-57
2022/11/22 09:28:33;;;;;;;;;;;;;;;30.78;nan;101866.50;5089723;28;19920;-56
2022/11/22 09:31:00;;;;;;;;;;;;;;;30.71;nan;101859.97;5079497;28;19916;-55
2022/11/22 09:33:26;;;;;;;;;;;;;;;30.41;nan;101857.81;5083440;28;20287;-55
2022/11/22 09:36:03;;;;;;;;;;;;;;;30.19;nan;101856.63;5084989;28;20317;-55
2022/11/22 09:38:30;;;;;;;;;;;;;;;30.45;nan;101871.91;5076347;28;20378;-56
2022/11/22 09:40:57;;;;;;;;;;;;;;;30.20;nan;101869.44;5087239;28;19962;-55
2022/11/22 09:43:23;;;;;;;;;;;;;;;30.48;nan;101877.56;5082402;28;19920;-56
2022/11/22 09:45:49;;;;;;;;;;;;;;;30.68;nan;101869.94;5079658;28;19917;-56
2022/11/22 09:48:44;;;;;;;;;;;;;;;30.43;nan;101866.66;5082037;28;19943;-57
2022/11/22 09:51:11;;;;;;;;;;;;;;;30.41;nan;101859.81;5067899;28;20417;-56
2022/11/22 09:53:42;;;;;;;;;;;;;;;30.35;nan;101862.94;5072694;28;20275;-56
2022/11/22 09:56:12;;;;;;;;;;;;;;;30.24;nan;101861.09;5072630;28;19955;-54
2022/11/22 09:58:56;;;;;;;;;;;;;;;30.18;nan;101857.00;5054730;28;20341;-55
2022/11/22 10:01:30;;;;;;;;;;;;;;;30.32;nan;101858.03;5072502;28;19921;-54
2022/11/22 10:04:04;;;;;;;;;;;;;;;30.35;nan;101856.50;5072720;28;20382;-56
2022/11/22 10:06:52;;;;;;;;;;;;;;;30.45;nan;101860.69;5072614;28;19928;-56
2022/11/22 10:09:21;;;;;;;;;;;;;;;30.42;nan;101850.22;5072538;28;19920;-54
2022/11/22 10:11:51;;;;;;;;;;;;;;;30.24;nan;101856.31;5072357;28;19916;-55
2022/11/22 10:14:29;;;;;;;;;;;;;;;30.36;nan;101849.72;5072499;28;19921;-55
2022/11/22 10:17:14;;;;;;;;;;;;;;;30.21;nan;101845.03;5072641;28;20355;-57
2022/11/22 10:19:44;;;;;;;;;;;;;;;30.31;nan;101844.41;5064885;28;19920;-58
2022/11/22 10:22:12;;;;;;;;;;;;;;;30.25;nan;101843.91;5072236;28;19924;-55
2022/11/22 10:24:39;;;;;;;;;;;;;;;30.30;nan;101849.19;5071922;28;19941;-55
2022/11/22 10:27:14;;;;;;;;;;;;;;;30.34;nan;101844.47;5074287;28;19916;-55
2022/11/22 10:29:50;;;;;;;;;;;;;;;30.42;nan;101844.59;5076346;28;19916;-57
2022/11/22 10:32:25;;;;;;;;;;;;;;;30.18;nan;101842.97;5076521;28;19924;-56
2022/11/22 10:35:11;;;;;;;;;;;;;;;30.15;nan;101846.50;5076377;28;20361;-57
2022/11/22 10:37:56;;;;;;;;;;;;;;;30.40;nan;101846.97;5058535;28;20409;-56
2022/11/22 10:40:26;;;;;;;;;;;;;;;30.16;nan;101846.13;5076195;28;20323;-57
2022/11/22 10:43:10;;;;;;;;;;;;;;;30.17;nan;101838.53;5076058;28;19916;-54
2022/11/22 10:45:47;;;;;;;;;;;;;;;30.11;nan;101845.63;5076260;28;19927;-57
2022/11/22 10:48:16;;;;;;;;;;;;;;;30.29;nan;101850.38;5067373;28;19929;-55
2022/11/22 10:50:45;;;;;;;;;;;;;;;30.33;nan;101842.84;5056607;28;19920;-57
2022/11/22 10:53:11;;;;;;;;;;;;;;;30.28;nan;101847.94;5088238;28;20058;-56
2022/11/22 10:55:43;;;;;;;;;;;;;;;30.25;nan;101845.91;5087978;28;19916;-55
2022/11/22 10:58:22;;;;;;;;;;;;;;;30.31;nan;101847.19;5079769;28;19981;-55
2022/11/22 11:00:50;;;;;;;;;;;;;;;30.30;nan;101840.78;5080617;28;19971;-56
2022/11/22 11:03:22;;;;;;;;;;;;;;;30.45;nan;101846.66;5087403;28;20007;-56
2022/11/22 11:05:50;;;;;;;;;;;;;;;30.23;nan;101848.25;5088825;28;20364;-56
2022/11/22 11:08:25;;;;;;;;;;;;;;;30.33;nan;101845.63;5079066;28;19920;-55
2022/11/22 11:10:51;;;;;;;;;;;;;;;30.02;nan;101837.41;5090914;28;20426;-55
2022/11/22 11:13:22;;;;;;;;;;;;;;;30.44;nan;101843.03;5084396;28;19916;-56
2022/11/22 11:15:54;;;;;;;;;;;;;;;30.40;nan;101830.94;5082382;28;20010;-55
2022/11/22 11:18:30;;;;;;;;;;;;;;;30.54;nan;101844.44;5085573;28;20390;-55
2022/11/22 11:20:56;;;;;;;;;;;;;;;30.53;nan;101840.00;5089754;28;19968;-55
2022/11/22 11:23:22;;;;;;;;;;;;;;;30.35;nan;101845.28;5085133;28;20043;-54
2022/11/22 11:25:51;;;;;;;;;;;;;;;30.25;nan;101841.09;5082262;28;20053;-56
2022/11/22 11:28:29;;;;;;;;;;;;;;;30.34;nan;101846.44;5092059;28;19916;-55
2022/11/22 11:31:00;;;;;;;;;;;;;;;30.29;nan;101847.56;5081032;28;19924;-55
2022/11/22 11:33:30;;;;;;;;;;;;;;;30.04;nan;101846.31;5085603;28;19974;-56
2022/11/22 11:36:01;;;;;;;;;;;;;;;29.81;nan;101848.22;5089380;28;19970;-56
2022/11/22 11:38:48;;;;;;;;;;;;;;;29.52;nan;101847.59;5076880;28;19921;-57
2022/11/22 11:41:18;;;;;;;;;;;;;;;29.12;nan;101854.25;5086791;28;19920;-56
2022/11/22 11:43:44;;;;;;;;;;;;;;;29.81;nan;101846.22;5086222;28;19924;-55
2022/11/22 11:46:33;;;;;;;;;;;;;;;29.88;nan;101849.16;5078873;28;19974;-55
2022/11/22 11:49:16;;;;;;;;;;;;;;;29.89;nan;101844.34;5080790;28;19920;-56
2022/11/22 11:51:42;;;;;;;;;;;;;;;30.03;nan;101845.47;5082587;28;20031;-53
2022/11/22 11:54:10;;;;;;;;;;;;;;;29.91;nan;101836.38;5091018;28;20393;-54
2022/11/22 11:56:48;;;;;;;;;;;;;;;29.78;nan;101832.91;5077543;28;19924;-55
2022/11/22 11:59:19;;;;;;;;;;;;;;;29.60;nan;101828.94;5074741;28;20385;-55
2022/11/22 12:01:52;;;;;;;;;;;;;;;29.41;nan;101829.69;5087411;28;19927;-57
2022/11/22 12:04:21;;;;;;;;;;;;;;;29.37;nan;101831.63;5078010;28;20312;-54
2022/11/22 12:06:54;;;;;;;;;;;;;;;29.59;nan;101830.13;5091200;28;19916;-55
2022/11/22 12:09:29;;;;;;;;;;;;;;;29.63;nan;101834.63;5085225;28;19920;-55
2022/11/22 12:11:57;;;;;;;;;;;;;;;29.16;nan;101835.56;5088529;28;20281;-55
2022/11/22 12:14:25;;;;;;;;;;;;;;;29.13;nan;101833.50;5077937;27;20257;-55
2022/11/22 12:16:57;;;;;;;;;;;;;;;29.66;nan;101831.09;5089388;28;19978;-55
2022/11/22 12:19:31;;;;;;;;;;;;;;;29.59;nan;101835.72;5083475;28;19959;-55
2022/11/22 12:22:04;;;;;;;;;;;;;;;29.16;nan;101827.16;5080156;28;19920;-55
2022/11/22 12:24:42;;;;;;;;;;;;;;;28.79;nan;101826.66;5090978;28;19920;-56
2022/11/22 12:27:09;;;;;;;;;;;;;;;29.12;nan;101831.88;5081875;28;19920;-55
2022/11/22 12:29:36;;;;;;;;;;;;;;;29.23;nan;101829.28;5083050;28;19923;-56
2022/11/22 12:32:11;;;;;;;;;;;;;;;29.43;nan;101822.53;5089134;28;19970;-56
2022/11/22 12:34:57;;;;;;;;;;;;;;;29.37;nan;101829.63;5076368;28;19966;-56
2022/11/22 12:37:24;;;;;;;;;;;;;;;29.19;nan;101832.03;5084551;28;19966;-56
2022/11/22 12:39:52;;;;;;;;;;;;;;;29.55;nan;101835.66;5087139;28;20266;-56
2022/11/22 12:42:20;;;;;;;;;;;;;;;29.43;nan;101833.75;5077640;28;19921;-55
2022/11/22 12:44:51;;;;;;;;;;;;;;;29.66;nan;101836.69;5078138;28;20282;-58
2022/11/22 12:47:20;;;;;;;;;;;;;;;29.61;nan;101836.97;5082320;28;19946;-56
2022/11/22 12:49:51;;;;;;;;;;;;;;;29.61;nan;101839.78;5078518;28;20449;-55
2022/11/22 12:52:37;;;;;;;;;;;;;;;29.75;nan;101842.88;5076981;28;19967;-55
2022/11/22 12:55:10;;;;;;;;;;;;;;;29.69;nan;101841.56;5086948;28;20326;-55
2022/11/22 12:57:38;;;;;;;;;;;;;;;29.60;nan;101837.34;5085272;28;19977;-54
2022/11/22 13:00:09;;;;;;;;;;;;;;;29.54;nan;101834.03;5078183;28;19917;-55
2022/11/22 13:02:35;;;;;;;;;;;;;;;29.45;nan;101836.22;5077726;28;19920;-56
2022/11/22 13:05:09;;;;;;;;;;;;;;;29.32;nan;101834.72;5087291;28;19912;-55
2022/11/22 13:07:35;;;;;;;;;;;;;;;29.36;nan;101830.00;5084894;28;19920;-55
2022/11/22 13:10:21;;;;;;;;;;;;;;;29.34;nan;101835.16;5078563;28;19920;-56
2022/11/22 13:12:48;;;;;;;;;;;;;;;29.42;nan;101839.72;5077913;28;19924;-56
2022/11/22 13:15:18;;;;;;;;;;;;;;;29.37;nan;101845.63;5069998;28;19966;-55
2022/11/22 13:17:44;;;;;;;;;;;;;;;29.23;nan;101845.28;5076086;28;19920;-55